Latest Weather Observations for Morawa Airport

IDW60801

Issued at 10:03 am WST Tuesday 26 July 2016 (issued every 30 minutes, with the page automatically refreshed every 10 minutes)

About weather observations | Map of weather stations | Latest weather observations for WA | Other Formats
Station Details ID: 008296 Name: MORAWA AIRPORT Lat: -29.20 Lon: 116.02 Height: 271.4 m
Data from the previous 72 hours. | See also: Recent months at Morawa Airport
Date/Time
WST
Temp
°C
App
Temp
°C
Dew
Point
°C
Rel
Hum
%
Delta-T
°C
Wind Press
QNH
hPa
Press
MSL
hPa
Rain since
9am
mm
Dir  Spd
km/h
Gust
km/h
Spd
kts
Gust
kts
26/10:00am 11.5 8.0 7.4 76 2.0 ESE 15 22 8 12 1029.2 1029.2 0.0
26/09:30am 9.8 6.6 8.4 91 0.7 ESE 15 20 8 11 1029.4 1029.4 0.0
26/09:00am 8.4 5.6 8.4 100 0.0 SE 13 19 7 10 1029.0 1029.0 0.2
26/08:30am 6.8 5.3 6.8 100 0.0 SE 4 7 2 4 1028.7 1028.8 0.2
26/08:00am 4.7 3.1 4.7 100 0.0 SSE 2 4 1 2 1028.5 1028.6 0.2
26/07:30am 3.1 0.5 3.1 100 0.0 S 6 7 3 4 1028.3 1028.4 0.2
26/07:00am 2.5 -0.2 2.5 100 0.0 SSE 6 7 3 4 1028.1 1028.2 0.2
26/06:30am 3.3 -0.2 3.3 100 0.0 SSE 11 15 6 8 1028.0 1028.1 0.2
26/06:00am 2.1 -0.3 2.1 100 0.0 ESE 4 6 2 3 1027.5 1027.5 0.2
26/05:30am 2.6 -0.3 2.6 100 0.0 SSE 7 9 4 5 1027.5 1027.5 0.2
26/05:00am 3.2 0.4 3.2 100 0.0 S 7 9 4 5 1027.6 1027.6 0.2
26/04:30am 3.4 1.2 3.4 100 0.0 ESE 4 6 2 3 1027.2 1027.2 0.2
26/04:00am 3.9 1.8 3.9 100 0.0 E 4 7 2 4 1027.1 1027.1 0.2
26/03:30am 4.1 2.0 4.1 100 0.0 ESE 4 6 2 3 1027.5 1027.5 0.0
26/03:00am 4.2 1.8 4.2 100 0.0 SE 6 9 3 5 1027.9 1027.9 0.0
26/02:30am 4.5 2.0 4.5 100 0.0 SE 7 13 4 7 1027.9 1027.9 0.0
26/02:00am 5.0 2.5 5.0 100 0.0 SSE 7 11 4 6 1027.6 1027.6 0.0
26/01:30am 5.0 3.1 5.0 100 0.0 SE 4 6 2 3 1027.3 1027.3 0.0
26/01:00am 4.9 2.4 4.9 100 0.0 SSE 7 9 4 5 1027.4 1027.4 0.0
26/12:30am 4.5 2.1 4.5 100 0.0 SE 6 7 3 4 1027.3 1027.3 0.0
26/12:00am 4.8 2.5 4.8 100 0.0 SE 6 6 3 3 1027.5 1027.5 0.0
 
Date/Time
WST
Temp
°C
App
Temp
°C
Dew
Point
°C
Rel
Hum
%
Delta-T
°C
Wind Press
QNH
hPa
Press
MSL
hPa
Rain since
9am
mm
Dir  Spd
km/h
Gust
km/h
Spd
kts
Gust
kts
25/11:30pm 5.7 2.6 5.7 100 0.0 SE 11 15 6 8 1027.7 1027.7 0.0
25/11:00pm 5.4 3.0 5.4 100 0.0 SE 7 13 4 7 1027.7 1027.7 0.0
25/10:30pm 5.9 3.3 5.9 100 0.0 SE 9 15 5 8 1027.8 1027.8 0.0
25/10:00pm 6.3 3.7 6.3 100 0.0 SE 9 13 5 7 1027.6 1027.6 0.0
25/09:30pm 6.8 4.0 6.8 100 0.0 SE 11 15 6 8 1027.6 1027.6 0.0
25/09:00pm 7.5 4.5 7.5 100 0.0 SSE 13 19 7 10 1027.7 1027.7 0.0
25/08:30pm 8.1 4.7 7.8 98 0.1 SSE 15 22 8 12 1027.4 1027.4 0.0
25/08:00pm 8.2 5.2 7.8 97 0.2 SSE 13 17 7 9 1027.0 1027.0 0.0
25/07:30pm 8.3 6.4 7.5 95 0.4 S 7 9 4 5 1026.7 1026.7 0.0
25/07:00pm 9.6 7.4 7.7 88 0.9 S 9 13 5 7 1026.6 1026.6 0.0
25/06:30pm 10.3 8.0 7.5 83 1.4 S 9 11 5 6 1026.2 1026.2 0.0
25/06:00pm 11.3 8.5 7.0 75 2.1 S 11 13 6 7 1025.8 1025.8 0.0
25/05:30pm 12.6 9.3 6.4 66 3.0 SSE 13 17 7 9 1025.7 1025.7 0.0
25/05:00pm 14.1 10.9 6.7 61 3.6 SSE 13 19 7 10 1025.5 1025.5 0.0
25/04:30pm 15.1 11.4 6.1 55 4.4 SSE 15 20 8 11 1025.3 1025.3 0.0
25/04:00pm 15.8 12.1 6.5 54 4.6 SE 15 20 8 11 1025.1 1025.1 0.0
25/03:30pm 15.9 12.5 6.1 52 4.8 SE 13 17 7 9 1024.9 1025.0 0.0
25/03:00pm 15.8 12.3 5.4 50 5.0 SE 13 17 7 9 1024.9 1025.0 0.0
25/02:30pm 15.7 12.1 5.0 49 5.1 ESE 13 20 7 11 1024.9 1025.0 0.0
25/02:00pm 15.5 11.5 5.1 50 5.0 SE 15 20 8 11 1025.1 1025.1 0.0
25/01:30pm 15.3 11.8 5.5 52 4.7 SE 13 19 7 10 1025.3 1025.3 0.0
25/01:00pm 14.9 11.3 5.1 52 4.7 ESE 13 20 7 11 1025.7 1025.7 0.0
25/12:30pm 14.4 11.7 5.7 56 4.2 SE 9 17 5 9 1026.2 1026.2 0.0
25/12:00pm 14.1 11.5 6.0 58 3.9 ESE 9 19 5 10 1026.8 1026.8 0.0
25/11:30am 13.6 10.5 5.5 58 3.9 E 11 17 6 9 1027.1 1027.1 0.0
25/11:00am 12.6 9.2 5.8 63 3.2 E 13 20 7 11 1027.3 1027.3 0.0
25/10:30am 11.5 7.7 5.6 67 2.8 ESE 15 19 8 10 1027.7 1027.7 0.0
25/10:00am 10.7 7.0 6.5 75 2.0 ESE 15 19 8 10 1027.9 1027.9 0.0
25/09:30am 9.0 6.0 6.1 82 1.4 SE 11 15 6 8 1027.7 1027.7 0.0
25/09:00am 7.0 4.4 6.3 95 0.3 SSE 9 15 5 8 1027.8 1027.8 0.0
25/08:30am 5.9 3.2 5.8 99 0.0 S 9 13 5 7 1027.6 1027.6 0.0
25/08:00am 5.0 2.5 5.0 100 0.0 S 7 11 4 6 1027.5 1027.5 0.0
25/07:30am 4.2 1.6 4.2 100 0.0 S 7 11 4 6 1027.1 1027.1 0.0
25/07:00am 3.6 0.9 3.6 100 0.0 S 7 9 4 5 1026.7 1026.7 0.0
25/06:30am 3.9 0.8 3.8 99 0.0 ESE 9 11 5 6 1026.2 1026.2 0.0
25/06:00am 5.2 2.4 5.1 99 0.0 SE 9 13 5 7 1026.1 1026.1 0.0
25/05:30am 4.0 2.3 4.0 100 0.0 E 2 6 1 3 1025.9 1025.9 0.0
25/05:00am 4.5 2.1 4.5 100 0.0 E 6 9 3 5 1025.8 1025.8 0.0
25/04:30am 4.3 3.0 4.3 100 0.0 CALM 0 2 0 1 1025.7 1025.7 0.0
25/04:00am 4.6 3.0 4.6 100 0.0 ESE 2 4 1 2 1025.9 1025.9 0.0
25/03:30am 4.8 2.3 4.8 100 0.0 SSE 7 13 4 7 1025.9 1025.9 0.0
25/03:00am 4.7 2.2 4.7 100 0.0 SSE 7 11 4 6 1026.0 1026.0 0.0
25/02:30am 4.2 1.8 4.1 99 0.0 SE 6 9 3 5 1026.1 1026.1 0.0
25/02:00am 4.4 2.0 4.3 99 0.0 SE 6 9 3 5 1026.1 1026.1 0.0
25/01:30am 5.0 1.8 4.9 99 0.0 SE 11 15 6 8 1026.1 1026.1 0.0
25/01:00am 4.5 2.0 4.5 100 0.0 SSE 7 11 4 6 1026.1 1026.1 0.0
25/12:30am 4.1 1.7 4.1 100 0.0 SSE 6 9 3 5 1026.2 1026.2 0.0
25/12:00am 4.8 2.3 4.7 99 0.0 SSE 7 13 4 7 1026.3 1026.3 0.0
 
Date/Time
WST
Temp
°C
App
Temp
°C
Dew
Point
°C
Rel
Hum
%
Delta-T
°C
Wind Press
QNH
hPa
Press
MSL
hPa
Rain since
9am
mm
Dir  Spd
km/h
Gust
km/h
Spd
kts
Gust
kts
24/11:30pm 4.8 2.3 4.7 99 0.0 S 7 9 4 5 1026.3 1026.3 0.0
24/11:00pm 4.9 2.2 3.9 93 0.4 SSE 7 9 4 5 1026.4 1026.4 0.0
24/10:30pm 5.6 3.0 4.2 91 0.6 SSE 7 9 4 5 1026.5 1026.5 0.0
24/10:00pm 6.1 3.8 4.7 91 0.6 SSE 6 9 3 5 1026.4 1026.4 0.0
24/09:30pm 6.0 3.1 4.6 91 0.6 SE 9 13 5 7 1026.5 1026.5 0.0
24/09:00pm 6.4 4.1 4.7 89 0.7 SE 6 9 3 5 1026.5 1026.5 0.0
24/08:30pm 7.0 4.2 5.2 88 0.8 SSE 9 11 5 6 1026.3 1026.3 0.0
24/08:00pm 7.6 5.0 6.2 91 0.6 SSE 9 11 5 6 1026.2 1026.2 0.0
24/07:30pm 8.2 5.7 6.5 89 0.8 SSE 9 13 5 7 1026.1 1026.1 0.0
24/07:00pm 8.7 6.6 6.5 86 1.0 SSE 7 9 4 5 1025.8 1025.8 0.0
24/06:30pm 9.7 7.6 6.6 81 1.5 SSE 7 9 4 5 1025.4 1025.4 0.0
24/06:00pm 10.2 7.7 6.5 78 1.7 SSE 9 15 5 8 1024.7 1024.7 0.0
24/05:30pm 11.7 8.5 5.3 65 3.0 SE 11 13 6 7 1024.5 1024.5 0.0
24/05:00pm 13.4 9.9 5.3 58 3.8 SE 13 20 7 11 1024.3 1024.3 0.0
24/04:30pm 14.3 10.7 5.1 54 4.4 SE 13 19 7 10 1024.2 1024.2 0.0
24/04:00pm 14.8 10.8 5.1 52 4.6 SE 15 19 8 10 1024.0 1024.0 0.0
24/03:30pm 14.9 11.3 5.1 52 4.7 SE 13 20 7 11 1023.9 1023.9 0.0
24/03:00pm 14.9 10.9 5.1 52 4.7 ESE 15 22 8 12 1024.0 1024.0 0.0
24/02:30pm 15.1 11.9 5.3 52 4.7 E 11 17 6 9 1024.2 1024.2 0.0
24/02:00pm 14.9 11.4 5.4 53 4.5 ESE 13 22 7 12 1024.3 1024.3 0.0
24/01:30pm 14.5 11.0 5.6 55 4.3 ESE 13 20 7 11 1024.6 1024.6 0.0
24/01:00pm 14.3 11.3 6.2 58 3.9 E 11 20 6 11 1025.2 1025.2 0.0
24/12:30pm 13.9 10.5 6.0 59 3.8 ESE 13 17 7 9 1025.6 1025.6 0.0
24/12:00pm 13.0 9.7 6.4 64 3.2 ESE 13 22 7 12 1026.2 1026.2 0.0
24/11:30am 12.3 8.3 6.8 69 2.7 ESE 17 22 9 12 1026.6 1026.6 0.0
24/11:00am 12.5 8.2 6.8 68 2.8 E 19 24 10 13 1027.0 1027.0 0.0
24/10:30am 11.8 7.4 6.7 71 2.5 E 19 26 10 14 1027.1 1027.1 0.0
24/10:00am 12.2 8.3 8.7 79 1.8 ESE 19 24 10 13 1027.2 1027.2 0.0
24/09:30am 10.9 8.1 10.1 95 0.4 ESE 15 22 8 12 1027.0 1027.0 0.0
24/09:00am 10.0 7.6 10.0 100 0.0 ESE 13 20 7 11 1027.0 1027.0 0.0
24/08:30am 9.3 7.5 9.3 100 0.0 E 9 15 5 8 1026.9 1026.9 0.0
24/08:00am 9.0 7.1 9.0 100 0.0 ESE 9 13 5 7 1026.6 1026.6 0.0
24/07:30am 8.8 6.4 8.8 100 0.0 E 11 17 6 9 1026.3 1026.3 0.0
24/07:00am 8.6 6.6 8.6 100 0.0 ESE 9 17 5 9 1026.0 1026.0 0.0
24/06:30am 8.1 6.3 8.1 100 0.0 E 7 11 4 6 1025.6 1025.6 0.0
24/06:00am 7.5 6.2 7.5 100 0.0 SE 4 9 2 5 1025.3 1025.3 0.0
24/05:30am 6.4 5.6 6.4 100 0.0 CALM 0 0 0 0 1025.1 1025.1 0.0
24/05:00am 5.5 4.5 5.5 100 0.0 CALM 0 0 0 0 1025.1 1025.1 0.0
24/04:30am 5.9 5.0 5.9 100 0.0 CALM 0 0 0 0 1025.1 1025.1 0.0
24/04:00am 4.5 3.3 4.5 100 0.0 CALM 0 0 0 0 1025.1 1025.1 0.0
24/03:30am 5.0 3.1 5.0 100 0.0 SSW 4 4 2 2 1025.1 1025.1 0.0
24/03:00am 4.9 2.6 4.9 100 0.0 S 6 6 3 3 1025.1 1025.1 0.0
24/02:30am 4.9 3.8 4.9 100 0.0 CALM 0 2 0 1 1025.2 1025.2 0.0
24/02:00am 5.5 4.1 5.5 100 0.0 SSE 2 6 1 3 1025.1 1025.1 0.0
24/01:30am 5.7 4.0 5.7 100 0.0 SSE 4 6 2 3 1025.1 1025.1 0.0
24/01:00am 6.3 4.7 6.3 100 0.0 SSW 4 6 2 3 1025.2 1025.2 0.0
24/12:30am 6.7 4.8 6.7 100 0.0 SSW 6 7 3 4 1025.1 1025.1 0.0
24/12:00am 6.8 5.3 6.8 100 0.0 SSW 4 6 2 3 1025.2 1025.2 0.0
 
Date/Time
WST
Temp
°C
App
Temp
°C
Dew
Point
°C
Rel
Hum
%
Delta-T
°C
Wind Press
QNH
hPa
Press
MSL
hPa
Rain since
9am
mm
Dir  Spd
km/h
Gust
km/h
Spd
kts
Gust
kts
23/11:30pm 6.7 4.8 6.7 100 0.0 SSW 6 6 3 3 1025.4 1025.4 0.0
23/11:00pm 6.8 5.7 6.8 100 0.0 SSW 2 4 1 2 1025.4 1025.4 0.0
23/10:30pm 8.0 6.4 8.0 100 0.0 SSW 6 7 3 4 1025.1 1025.1 0.0
23/10:00pm 8.5 6.7 7.9 96 0.3 SSW 7 9 4 5 1024.9 1025.0 0.0
23/09:30pm 9.2 7.3 7.6 90 0.8 SSW 7 9 4 5 1024.8 1024.8 0.0
23/09:00pm 10.2 7.9 7.6 84 1.3 SSW 9 13 5 7 1024.7 1024.7 0.0
23/08:30pm 9.2 8.3 9.2 100 0.0 WSW 4 7 2 4 1024.6 1024.6 0.0
23/08:00pm 9.9 9.7 9.1 95 0.4 CALM 0 0 0 0 1024.4 1024.4 0.0
23/07:30pm 10.8 9.9 9.2 90 0.8 W 4 4 2 2 1024.2 1024.2 0.0
23/07:00pm 10.9 10.9 9.7 92 0.6 CALM 0 0 0 0 1024.3 1024.3 0.0
23/06:30pm 11.3 11.2 9.6 89 0.9 CALM 0 0 0 0 1024.0 1024.0 0.0
23/06:00pm 11.6 10.3 7.5 76 2.0 SSE 4 4 2 2 1023.6 1023.6 0.0
23/05:30pm 13.4 11.9 7.0 65 3.1 S 4 6 2 3 1023.5 1023.5 0.0
23/05:00pm 14.1 12.2 6.7 61 3.6 SW 6 7 3 4 1023.4 1023.4 0.0
23/04:30pm 14.9 12.8 6.5 57 4.1 SW 7 11 4 6 1023.3 1023.3 0.0
23/04:00pm 14.2 12.1 6.8 61 3.6 S 7 9 4 5 1023.2 1023.2 0.0
23/03:30pm 14.5 11.6 6.6 59 3.9 S 11 15 6 8 1023.3 1023.3 0.0
23/03:00pm 14.5 11.5 6.1 57 4.1 SSE 11 17 6 9 1023.3 1023.3 0.0
23/02:30pm 15.0 12.5 6.6 57 4.1 SSW 9 15 5 8 1023.3 1023.3 0.0
23/02:00pm 14.5 11.3 5.3 54 4.4 S 11 15 6 8 1023.5 1023.5 0.0
23/01:30pm 14.6 12.4 5.1 53 4.5 SSW 6 13 3 7 1023.6 1023.6 0.0
23/01:00pm 14.5 12.6 4.8 52 4.6 SE 4 7 2 4 1023.6 1023.6 0.0
23/12:30pm 14.1 12.1 4.4 52 4.5 SSE 4 9 2 5 1023.8 1023.8 0.0
23/12:00pm 13.4 10.7 3.8 52 4.4 ESE 7 9 4 5 1024.2 1024.2 0.0
23/11:30am 13.3 10.9 4.2 54 4.2 ENE 6 9 3 5 1024.6 1024.6 0.0
23/11:00am 12.9 9.7 3.3 52 4.3 NE 9 13 5 7 1024.8 1024.8 0.0
23/10:30am 12.7 9.5 4.9 59 3.6 NE 11 15 6 8 1025.2 1025.2 0.0

Other Formats:

Comma delimited format used in spreadsheet applications
http://www.bom.gov.au/fwo/IDW60801/IDW60801.94417.axf

JavaScript Object Notation format (JSON) in row-major order
http://www.bom.gov.au/fwo/IDW60801/IDW60801.94417.json